M/y A.b.normal — 2DLI6 — position and weather

sailwx.info

Track history (hours):
 
Tides and Currents Weather Stations Pressure Air Temp Water Temp Dewpoint Dewpoint Depression Visibility Wind Speed Wind Dir Waves Ship Positions

M/y A.b.normal

Last reported at 2014-Sep-14 19:18 UTC. Time now 2014-Oct-23 08:44 UTC.
Position N 40°55' E 009°32'.
Warning: this ship's position is 38 days out of date.

Length 28 m; draft 2.6 m.

Type: Pleasure craft. MMSI: 235079977.

Date/timePositionNaut miles runAvg speedWind from/ knotsBaromVisibWave heightAir tempDewpointWater temp
2014-Sep-14 19:18N 40°55' E 009°32'0 0.0
2014-Sep-14 18:33N 40°55' E 009°32'0 0.0
2014-Sep-14 13:32N 40°55' E 009°32'0 0.0
2014-Sep-14 12:33N 40°55' E 009°32'0 0.0
2014-Sep-14 11:33N 40°55' E 009°32'0 0.0
2014-Sep-14 10:33N 40°55' E 009°32'0 0.0
2014-Sep-14 09:33N 40°55' E 009°32'0 0.0
2014-Sep-14 08:33N 40°55' E 009°32'0 0.0
2014-Sep-14 07:33N 40°55' E 009°32'0 0.0
2014-Sep-14 06:33N 40°55' E 009°32'0 0.0
2014-Sep-14 05:33N 40°55' E 009°32'0 0.0
2014-Sep-14 04:33N 40°55' E 009°32'0 0.0
2014-Sep-14 03:33N 40°55' E 009°32'0 0.0
2014-Sep-14 02:33N 40°55' E 009°32'0 0.0
2014-Sep-14 01:33N 40°55' E 009°32'0 0.0
2014-Sep-13 21:33N 40°55' E 009°32'0 0.0
2014-Sep-13 13:20N 40°55' E 009°32'0 0.0
2014-Sep-13 12:33N 40°55' E 009°32'0 0.0
2014-Sep-13 11:33N 40°55' E 009°32'0 0.0
2014-Sep-13 10:33N 40°55' E 009°32'0 0.0
2014-Sep-13 09:33N 40°55' E 009°32'0 0.0
2014-Sep-13 08:33N 40°55' E 009°32'0 0.0
2014-Sep-13 07:33N 40°55' E 009°32'0 0.0
2014-Sep-13 06:33N 40°55' E 009°32'0 0.0
2014-Sep-13 05:33N 40°55' E 009°32'0 0.0
2014-Sep-13 04:33N 40°55' E 009°32'0 0.0
2014-Sep-13 03:33N 40°55' E 009°32'0 0.0
2014-Sep-13 02:33N 40°55' E 009°32'0 0.0
2014-Sep-13 01:33N 40°55' E 009°32'0 0.0
2014-Sep-13 00:33N 40°55' E 009°32'0 0.0
2014-Sep-12 23:33N 40°55' E 009°32'0 0.0
2014-Sep-12 22:33N 40°55' E 009°32'0 0.0
2014-Sep-12 21:33N 40°55' E 009°32'0 0.0
2014-Sep-12 20:33N 40°55' E 009°32'0 0.0
2014-Sep-12 19:33N 40°55' E 009°32'0 0.0
2014-Sep-12 18:33N 40°55' E 009°32'0 0.0
2014-Sep-12 17:33N 40°55' E 009°32'0 0.1
2014-Sep-12 16:33N 40°55' E 009°32'0 0.0
2014-Sep-12 15:33N 40°55' E 009°32'0 0.0
2014-Sep-12 14:33N 40°55' E 009°32'0 0.0
2014-Sep-12 13:33N 40°55' E 009°32'0 0.0
2014-Sep-12 09:33N 40°55' E 009°32'0 0.0
2014-Sep-12 08:33N 40°55' E 009°32'248 7.7
2014-Sep-11 00:23N 39°37' E 004°23'8 9.1
2014-Sep-10 23:33N 39°34' E 004°15'30 9.0
2014-Sep-10 20:15N 39°21' E 003°40'8 9.2
2014-Sep-10 19:25N 39°17' E 003°32'8 9.2
2014-Sep-10 18:32N 39°13' E 003°22'9 9.2
2014-Sep-10 17:33N 39°09' E 003°12'9 9.2
2014-Sep-10 16:33N 39°05' E 003°01'9 9.2
2014-Sep-10 15:33N 39°03' E 002°50'9 9.1
2014-Sep-10 14:33N 39°02' E 002°38'9 9.1
2014-Sep-10 13:33N 39°00' E 002°27'9 9.2
2014-Sep-10 12:32N 38°59' E 002°15'9 9.0
2014-Sep-10 11:33N 38°58' E 002°03'9 9.3
2014-Sep-10 10:33N 38°57' E 001°52'9 9.0
2014-Sep-10 09:33N 38°55' E 001°40'9 9.0
2014-Sep-10 08:33N 38°54' E 001°29'  
2014-Sep-07 16:12N 38°53' E 001°27'7 7.5
2014-Sep-07 15:12N 38°46' E 001°26'0 0.0
2014-Sep-07 14:32N 38°46' E 001°26'0 0.0
2014-Sep-07 13:33N 38°46' E 001°26'0 0.0
2014-Sep-07 12:06N 38°46' E 001°26'0 0.0
2014-Sep-07 11:33N 38°46' E 001°26'0 0.0
2014-Sep-07 10:33N 38°46' E 001°26'0 0.0
2014-Sep-07 09:33N 38°46' E 001°26'7 6.5
2014-Sep-07 08:33N 38°52' E 001°26'3 0.1
2014-Sep-05 17:10N 38°50' E 001°23'0 0.0
2014-Sep-05 16:25N 38°50' E 001°23'  
Track history (hours):
 
Tides and Currents Weather Stations Pressure Air Temp Water Temp Dewpoint Dewpoint Depression Visibility Wind Speed Wind Dir Waves Ship Positions

M/y A.b.normal

Last reported at 2014-Sep-14 19:18 UTC. Time now 2014-Oct-23 08:44 UTC.
Position N 40°55' E 009°32'.
Warning: this ship's position is 38 days out of date.

Length 28 m; draft 2.6 m.

Type: Pleasure craft. MMSI: 235079977.

Date/timePositionNaut miles runAvg speedWind from/ knotsBaromVisibWave heightAir tempDewpointWater temp
2014-Sep-14 19:18N 40°55' E 009°32'0 0.0
2014-Sep-14 18:33N 40°55' E 009°32'0 0.0
2014-Sep-14 13:32N 40°55' E 009°32'0 0.0
2014-Sep-14 12:33N 40°55' E 009°32'0 0.0
2014-Sep-14 11:33N 40°55' E 009°32'0 0.0
2014-Sep-14 10:33N 40°55' E 009°32'0 0.0
2014-Sep-14 09:33N 40°55' E 009°32'0 0.0
2014-Sep-14 08:33N 40°55' E 009°32'0 0.0
2014-Sep-14 07:33N 40°55' E 009°32'0 0.0
2014-Sep-14 06:33N 40°55' E 009°32'0 0.0
2014-Sep-14 05:33N 40°55' E 009°32'0 0.0
2014-Sep-14 04:33N 40°55' E 009°32'0 0.0
2014-Sep-14 03:33N 40°55' E 009°32'0 0.0
2014-Sep-14 02:33N 40°55' E 009°32'0 0.0
2014-Sep-14 01:33N 40°55' E 009°32'0 0.0
2014-Sep-13 21:33N 40°55' E 009°32'0 0.0
2014-Sep-13 13:20N 40°55' E 009°32'0 0.0
2014-Sep-13 12:33N 40°55' E 009°32'0 0.0
2014-Sep-13 11:33N 40°55' E 009°32'0 0.0
2014-Sep-13 10:33N 40°55' E 009°32'0 0.0
2014-Sep-13 09:33N 40°55' E 009°32'0 0.0
2014-Sep-13 08:33N 40°55' E 009°32'0 0.0
2014-Sep-13 07:33N 40°55' E 009°32'0 0.0
2014-Sep-13 06:33N 40°55' E 009°32'0 0.0
2014-Sep-13 05:33N 40°55' E 009°32'0 0.0
2014-Sep-13 04:33N 40°55' E 009°32'0 0.0
2014-Sep-13 03:33N 40°55' E 009°32'0 0.0
2014-Sep-13 02:33N 40°55' E 009°32'0 0.0
2014-Sep-13 01:33N 40°55' E 009°32'0 0.0
2014-Sep-13 00:33N 40°55' E 009°32'0 0.0
2014-Sep-12 23:33N 40°55' E 009°32'0 0.0
2014-Sep-12 22:33N 40°55' E 009°32'0 0.0
2014-Sep-12 21:33N 40°55' E 009°32'0 0.0
2014-Sep-12 20:33N 40°55' E 009°32'0 0.0
2014-Sep-12 19:33N 40°55' E 009°32'0 0.0
2014-Sep-12 18:33N 40°55' E 009°32'0 0.0
2014-Sep-12 17:33N 40°55' E 009°32'0 0.1
2014-Sep-12 16:33N 40°55' E 009°32'0 0.0
2014-Sep-12 15:33N 40°55' E 009°32'0 0.0
2014-Sep-12 14:33N 40°55' E 009°32'0 0.0
2014-Sep-12 13:33N 40°55' E 009°32'0 0.0
2014-Sep-12 09:33N 40°55' E 009°32'0 0.0
2014-Sep-12 08:33N 40°55' E 009°32'248 7.7
2014-Sep-11 00:23N 39°37' E 004°23'8 9.1
2014-Sep-10 23:33N 39°34' E 004°15'30 9.0
2014-Sep-10 20:15N 39°21' E 003°40'8 9.2
2014-Sep-10 19:25N 39°17' E 003°32'8 9.2
2014-Sep-10 18:32N 39°13' E 003°22'9 9.2
2014-Sep-10 17:33N 39°09' E 003°12'9 9.2
2014-Sep-10 16:33N 39°05' E 003°01'9 9.2
2014-Sep-10 15:33N 39°03' E 002°50'9 9.1
2014-Sep-10 14:33N 39°02' E 002°38'9 9.1
2014-Sep-10 13:33N 39°00' E 002°27'9 9.2
2014-Sep-10 12:32N 38°59' E 002°15'9 9.0
2014-Sep-10 11:33N 38°58' E 002°03'9 9.3
2014-Sep-10 10:33N 38°57' E 001°52'9 9.0
2014-Sep-10 09:33N 38°55' E 001°40'9 9.0
2014-Sep-10 08:33N 38°54' E 001°29'  
2014-Sep-07 16:12N 38°53' E 001°27'7 7.5
2014-Sep-07 15:12N 38°46' E 001°26'0 0.0
2014-Sep-07 14:32N 38°46' E 001°26'0 0.0
2014-Sep-07 13:33N 38°46' E 001°26'0 0.0
2014-Sep-07 12:06N 38°46' E 001°26'0 0.0
2014-Sep-07 11:33N 38°46' E 001°26'0 0.0
2014-Sep-07 10:33N 38°46' E 001°26'0 0.0
2014-Sep-07 09:33N 38°46' E 001°26'7 6.5
2014-Sep-07 08:33N 38°52' E 001°26'3 0.1
2014-Sep-05 17:10N 38°50' E 001°23'0 0.0
2014-Sep-05 16:25N 38°50' E 001°23'  

Dump ship's entire track history